sensor_id;sensor_type;location;lat;lon;timestamp;P1;durP1;ratioP1;P2;durP2;ratioP2
55076;SDS011;40971;44.702;11.030;2022-07-06T00:01:46;7.00;;;2.42;;
55076;SDS011;40971;44.702;11.030;2022-07-06T00:04:12;7.80;;;2.83;;
55076;SDS011;40971;44.702;11.030;2022-07-06T00:06:38;9.73;;;2.83;;
55076;SDS011;40971;44.702;11.030;2022-07-06T00:09:04;10.25;;;2.95;;
55076;SDS011;40971;44.702;11.030;2022-07-06T00:11:31;10.18;;;3.58;;
55076;SDS011;40971;44.702;11.030;2022-07-06T00:13:56;19.80;;;3.70;;
55076;SDS011;40971;44.702;11.030;2022-07-06T00:16:22;10.35;;;4.30;;
55076;SDS011;40971;44.702;11.030;2022-07-06T00:18:48;8.73;;;3.55;;
55076;SDS011;40971;44.702;11.030;2022-07-06T00:21:14;9.98;;;2.72;;
55076;SDS011;40971;44.702;11.030;2022-07-06T00:23:40;8.48;;;2.70;;
55076;SDS011;40971;44.702;11.030;2022-07-06T00:26:06;13.07;;;3.45;;
55076;SDS011;40971;44.702;11.030;2022-07-06T00:28:31;8.43;;;2.80;;
55076;SDS011;40971;44.702;11.030;2022-07-06T00:30:57;10.68;;;2.50;;
55076;SDS011;40971;44.702;11.030;2022-07-06T00:33:23;7.43;;;2.08;;
55076;SDS011;40971;44.702;11.030;2022-07-06T00:35:48;14.60;;;2.15;;
55076;SDS011;40971;44.702;11.030;2022-07-06T00:38:14;6.20;;;1.75;;
55076;SDS011;40971;44.702;11.030;2022-07-06T00:40:40;5.53;;;1.70;;
55076;SDS011;40971;44.702;11.030;2022-07-06T00:43:06;7.75;;;1.80;;
55076;SDS011;40971;44.702;11.030;2022-07-06T00:45:31;6.45;;;1.88;;
55076;SDS011;40971;44.702;11.030;2022-07-06T00:47:57;18.42;;;1.90;;
55076;SDS011;40971;44.702;11.030;2022-07-06T00:50:23;5.25;;;1.88;;
55076;SDS011;40971;44.702;11.030;2022-07-06T00:52:53;9.85;;;1.92;;
55076;SDS011;40971;44.702;11.030;2022-07-06T00:55:19;7.05;;;1.83;;
55076;SDS011;40971;44.702;11.030;2022-07-06T00:57:52;4.03;;;1.30;;
55076;SDS011;40971;44.702;11.030;2022-07-06T01:00:20;16.05;;;2.75;;
55076;SDS011;40971;44.702;11.030;2022-07-06T01:02:47;4.82;;;1.80;;
55076;SDS011;40971;44.702;11.030;2022-07-06T01:05:14;5.38;;;1.80;;
55076;SDS011;40971;44.702;11.030;2022-07-06T01:07:41;6.40;;;1.70;;
55076;SDS011;40971;44.702;11.030;2022-07-06T01:10:09;11.32;;;1.65;;
55076;SDS011;40971;44.702;11.030;2022-07-06T01:12:37;7.80;;;1.60;;
55076;SDS011;40971;44.702;11.030;2022-07-06T01:15:05;6.13;;;1.70;;
55076;SDS011;40971;44.702;11.030;2022-07-06T01:17:32;5.75;;;1.90;;
55076;SDS011;40971;44.702;11.030;2022-07-06T01:20:04;8.15;;;1.60;;
55076;SDS011;40971;44.702;11.030;2022-07-06T01:22:39;7.97;;;1.65;;
55076;SDS011;40971;44.702;11.030;2022-07-06T01:25:05;7.22;;;1.63;;
55076;SDS011;40971;44.702;11.030;2022-07-06T01:27:32;7.82;;;1.73;;
55076;SDS011;40971;44.702;11.030;2022-07-06T01:30:01;7.60;;;1.77;;
55076;SDS011;40971;44.702;11.030;2022-07-06T01:32:27;5.80;;;1.60;;
55076;SDS011;40971;44.702;11.030;2022-07-06T01:34:53;6.95;;;1.50;;
55076;SDS011;40971;44.702;11.030;2022-07-06T01:37:20;8.30;;;1.60;;
55076;SDS011;40971;44.702;11.030;2022-07-06T01:39:45;4.63;;;1.27;;
55076;SDS011;40971;44.702;11.030;2022-07-06T01:42:11;6.80;;;1.48;;
55076;SDS011;40971;44.702;11.030;2022-07-06T01:44:36;6.72;;;1.58;;
55076;SDS011;40971;44.702;11.030;2022-07-06T01:47:01;7.05;;;1.58;;
55076;SDS011;40971;44.702;11.030;2022-07-06T01:49:27;12.93;;;1.60;;
55076;SDS011;40971;44.702;11.030;2022-07-06T01:51:52;5.30;;;1.65;;
55076;SDS011;40971;44.702;11.030;2022-07-06T01:54:18;4.78;;;1.40;;
55076;SDS011;40971;44.702;11.030;2022-07-06T01:56:43;14.55;;;1.45;;
55076;SDS011;40971;44.702;11.030;2022-07-06T01:59:09;10.10;;;1.45;;
55076;SDS011;40971;44.702;11.030;2022-07-06T02:01:35;5.93;;;1.27;;
55076;SDS011;40971;44.702;11.030;2022-07-06T02:04:00;7.25;;;1.20;;
55076;SDS011;40971;44.702;11.030;2022-07-06T02:06:25;5.25;;;1.30;;
55076;SDS011;40971;44.702;11.030;2022-07-06T02:08:51;7.10;;;1.40;;
55076;SDS011;40971;44.702;11.030;2022-07-06T02:11:18;4.40;;;1.27;;
55076;SDS011;40971;44.702;11.030;2022-07-06T02:13:43;7.13;;;1.25;;
55076;SDS011;40971;44.702;11.030;2022-07-06T02:16:09;9.63;;;1.50;;
55076;SDS011;40971;44.702;11.030;2022-07-06T02:18:37;8.30;;;1.40;;
55076;SDS011;40971;44.702;11.030;2022-07-06T02:21:07;8.75;;;1.20;;
55076;SDS011;40971;44.702;11.030;2022-07-06T02:23:32;6.57;;;1.10;;
55076;SDS011;40971;44.702;11.030;2022-07-06T02:25:58;6.18;;;1.20;;
55076;SDS011;40971;44.702;11.030;2022-07-06T02:28:23;6.25;;;1.20;;
55076;SDS011;40971;44.702;11.030;2022-07-06T02:30:49;15.00;;;1.35;;
55076;SDS011;40971;44.702;11.030;2022-07-06T02:33:15;4.53;;;1.30;;
55076;SDS011;40971;44.702;11.030;2022-07-06T02:35:40;5.47;;;1.00;;
55076;SDS011;40971;44.702;11.030;2022-07-06T02:38:07;19.25;;;1.38;;
55076;SDS011;40971;44.702;11.030;2022-07-06T02:40:34;5.80;;;1.10;;
55076;SDS011;40971;44.702;11.030;2022-07-06T02:42:59;4.85;;;1.13;;
55076;SDS011;40971;44.702;11.030;2022-07-06T02:45:24;11.18;;;1.20;;
55076;SDS011;40971;44.702;11.030;2022-07-06T02:47:50;5.32;;;1.23;;
55076;SDS011;40971;44.702;11.030;2022-07-06T02:50:16;5.05;;;1.60;;
55076;SDS011;40971;44.702;11.030;2022-07-06T02:52:42;4.35;;;1.10;;
55076;SDS011;40971;44.702;11.030;2022-07-06T02:55:07;5.63;;;1.00;;
55076;SDS011;40971;44.702;11.030;2022-07-06T02:57:33;9.27;;;1.13;;
55076;SDS011;40971;44.702;11.030;2022-07-06T02:59:58;5.25;;;1.08;;
55076;SDS011;40971;44.702;11.030;2022-07-06T03:02:25;6.38;;;1.25;;
55076;SDS011;40971;44.702;11.030;2022-07-06T03:04:50;4.55;;;1.20;;
55076;SDS011;40971;44.702;11.030;2022-07-06T03:07:15;7.85;;;1.42;;
55076;SDS011;40971;44.702;11.030;2022-07-06T03:09:41;6.68;;;1.20;;
55076;SDS011;40971;44.702;11.030;2022-07-06T03:12:07;4.47;;;1.20;;
55076;SDS011;40971;44.702;11.030;2022-07-06T03:14:32;6.35;;;1.30;;
55076;SDS011;40971;44.702;11.030;2022-07-06T03:16:58;29.73;;;1.60;;
55076;SDS011;40971;44.702;11.030;2022-07-06T03:19:23;6.07;;;1.17;;
55076;SDS011;40971;44.702;11.030;2022-07-06T03:21:49;4.03;;;1.30;;
55076;SDS011;40971;44.702;11.030;2022-07-06T03:24:14;3.95;;;1.05;;
55076;SDS011;40971;44.702;11.030;2022-07-06T03:26:40;5.97;;;1.05;;
55076;SDS011;40971;44.702;11.030;2022-07-06T03:29:06;8.88;;;1.40;;
55076;SDS011;40971;44.702;11.030;2022-07-06T03:31:31;5.95;;;1.20;;
55076;SDS011;40971;44.702;11.030;2022-07-06T03:33:56;5.65;;;1.08;;
55076;SDS011;40971;44.702;11.030;2022-07-06T03:36:22;4.28;;;0.90;;
55076;SDS011;40971;44.702;11.030;2022-07-06T03:38:48;5.00;;;1.48;;
55076;SDS011;40971;44.702;11.030;2022-07-06T03:41:14;3.60;;;1.08;;
55076;SDS011;40971;44.702;11.030;2022-07-06T03:43:40;6.40;;;1.05;;
55076;SDS011;40971;44.702;11.030;2022-07-06T03:46:05;4.28;;;1.00;;
55076;SDS011;40971;44.702;11.030;2022-07-06T03:48:31;4.20;;;1.20;;
55076;SDS011;40971;44.702;11.030;2022-07-06T03:50:56;5.05;;;1.02;;
55076;SDS011;40971;44.702;11.030;2022-07-06T03:53:23;11.70;;;1.10;;
55076;SDS011;40971;44.702;11.030;2022-07-06T03:55:48;6.45;;;0.88;;
55076;SDS011;40971;44.702;11.030;2022-07-06T03:58:32;7.53;;;0.95;;
55076;SDS011;40971;44.702;11.030;2022-07-06T04:00:58;3.97;;;0.93;;
55076;SDS011;40971;44.702;11.030;2022-07-06T04:03:25;5.53;;;0.85;;
55076;SDS011;40971;44.702;11.030;2022-07-06T04:05:50;5.28;;;0.73;;
55076;SDS011;40971;44.702;11.030;2022-07-06T04:08:16;4.20;;;0.77;;
55076;SDS011;40971;44.702;11.030;2022-07-06T04:10:41;3.63;;;0.60;;
55076;SDS011;40971;44.702;11.030;2022-07-06T04:13:07;4.15;;;0.70;;
55076;SDS011;40971;44.702;11.030;2022-07-06T04:15:32;2.45;;;0.60;;
55076;SDS011;40971;44.702;11.030;2022-07-06T04:17:57;4.88;;;0.60;;
55076;SDS011;40971;44.702;11.030;2022-07-06T04:20:23;3.38;;;0.57;;
55076;SDS011;40971;44.702;11.030;2022-07-06T04:22:50;4.32;;;0.80;;
55076;SDS011;40971;44.702;11.030;2022-07-06T04:25:16;1.92;;;0.60;;
55076;SDS011;40971;44.702;11.030;2022-07-06T04:27:42;5.15;;;0.70;;
55076;SDS011;40971;44.702;11.030;2022-07-06T04:30:08;4.68;;;0.88;;
55076;SDS011;40971;44.702;11.030;2022-07-06T04:32:34;5.40;;;0.70;;
55076;SDS011;40971;44.702;11.030;2022-07-06T04:35:00;5.35;;;0.73;;
55076;SDS011;40971;44.702;11.030;2022-07-06T04:37:31;4.38;;;0.88;;
55076;SDS011;40971;44.702;11.030;2022-07-06T04:39:56;4.55;;;0.60;;
55076;SDS011;40971;44.702;11.030;2022-07-06T04:42:22;3.30;;;0.70;;
55076;SDS011;40971;44.702;11.030;2022-07-06T04:44:48;7.97;;;0.80;;
55076;SDS011;40971;44.702;11.030;2022-07-06T04:47:14;5.25;;;0.65;;
55076;SDS011;40971;44.702;11.030;2022-07-06T04:49:39;3.22;;;0.60;;
55076;SDS011;40971;44.702;11.030;2022-07-06T04:52:05;2.22;;;0.60;;
55076;SDS011;40971;44.702;11.030;2022-07-06T04:54:31;2.40;;;0.80;;
55076;SDS011;40971;44.702;11.030;2022-07-06T04:56:56;4.10;;;0.63;;
55076;SDS011;40971;44.702;11.030;2022-07-06T04:59:22;9.70;;;0.93;;
55076;SDS011;40971;44.702;11.030;2022-07-06T05:01:47;5.75;;;0.70;;
55076;SDS011;40971;44.702;11.030;2022-07-06T05:04:13;3.10;;;0.63;;
55076;SDS011;40971;44.702;11.030;2022-07-06T05:06:43;1.42;;;0.45;;
55076;SDS011;40971;44.702;11.030;2022-07-06T05:09:09;2.58;;;0.80;;
55076;SDS011;40971;44.702;11.030;2022-07-06T05:11:37;3.85;;;0.70;;
55076;SDS011;40971;44.702;11.030;2022-07-06T05:14:03;5.38;;;0.82;;
55076;SDS011;40971;44.702;11.030;2022-07-06T05:16:30;4.35;;;0.60;;
55076;SDS011;40971;44.702;11.030;2022-07-06T05:18:55;2.42;;;0.68;;
55076;SDS011;40971;44.702;11.030;2022-07-06T05:21:21;3.30;;;0.60;;
55076;SDS011;40971;44.702;11.030;2022-07-06T05:23:46;3.42;;;1.00;;
55076;SDS011;40971;44.702;11.030;2022-07-06T05:26:11;2.83;;;0.55;;
55076;SDS011;40971;44.702;11.030;2022-07-06T05:28:37;5.03;;;1.45;;
55076;SDS011;40971;44.702;11.030;2022-07-06T05:31:02;5.30;;;0.55;;
55076;SDS011;40971;44.702;11.030;2022-07-06T05:33:28;3.60;;;0.90;;
55076;SDS011;40971;44.702;11.030;2022-07-06T05:35:53;2.92;;;0.60;;
55076;SDS011;40971;44.702;11.030;2022-07-06T05:38:19;2.15;;;0.50;;
55076;SDS011;40971;44.702;11.030;2022-07-06T05:40:45;2.38;;;0.60;;
55076;SDS011;40971;44.702;11.030;2022-07-06T05:43:10;6.03;;;0.90;;
55076;SDS011;40971;44.702;11.030;2022-07-06T05:45:36;7.00;;;0.82;;
55076;SDS011;40971;44.702;11.030;2022-07-06T05:48:01;2.15;;;0.70;;
55076;SDS011;40971;44.702;11.030;2022-07-06T05:50:46;3.92;;;1.35;;
55076;SDS011;40971;44.702;11.030;2022-07-06T05:53:11;5.63;;;1.55;;
55076;SDS011;40971;44.702;11.030;2022-07-06T05:55:37;10.57;;;1.05;;
55076;SDS011;40971;44.702;11.030;2022-07-06T05:58:03;3.20;;;0.68;;
55076;SDS011;40971;44.702;11.030;2022-07-06T06:00:28;5.15;;;0.70;;
55076;SDS011;40971;44.702;11.030;2022-07-06T06:02:53;4.07;;;0.73;;
55076;SDS011;40971;44.702;11.030;2022-07-06T06:05:19;1.60;;;0.50;;
55076;SDS011;40971;44.702;11.030;2022-07-06T06:07:45;5.47;;;0.70;;
55076;SDS011;40971;44.702;11.030;2022-07-06T06:10:13;3.00;;;0.60;;
55076;SDS011;40971;44.702;11.030;2022-07-06T06:12:40;7.63;;;0.85;;
55076;SDS011;40971;44.702;11.030;2022-07-06T06:15:07;2.90;;;0.70;;
55076;SDS011;40971;44.702;11.030;2022-07-06T06:17:33;6.55;;;0.93;;
55076;SDS011;40971;44.702;11.030;2022-07-06T06:20:00;4.25;;;0.70;;
55076;SDS011;40971;44.702;11.030;2022-07-06T06:22:26;3.75;;;0.60;;
55076;SDS011;40971;44.702;11.030;2022-07-06T06:24:51;6.05;;;0.73;;
55076;SDS011;40971;44.702;11.030;2022-07-06T06:27:17;12.10;;;0.70;;
55076;SDS011;40971;44.702;11.030;2022-07-06T06:29:42;5.00;;;0.80;;
55076;SDS011;40971;44.702;11.030;2022-07-06T06:32:09;3.28;;;0.63;;
55076;SDS011;40971;44.702;11.030;2022-07-06T06:34:36;2.13;;;0.55;;
55076;SDS011;40971;44.702;11.030;2022-07-06T06:37:02;2.53;;;0.60;;
55076;SDS011;40971;44.702;11.030;2022-07-06T06:39:27;5.85;;;0.70;;
55076;SDS011;40971;44.702;11.030;2022-07-06T06:41:53;2.88;;;0.68;;
55076;SDS011;40971;44.702;11.030;2022-07-06T06:44:18;3.78;;;0.90;;
55076;SDS011;40971;44.702;11.030;2022-07-06T06:46:45;3.00;;;0.80;;
55076;SDS011;40971;44.702;11.030;2022-07-06T06:49:10;3.30;;;0.90;;
55076;SDS011;40971;44.702;11.030;2022-07-06T06:51:36;3.97;;;1.00;;
55076;SDS011;40971;44.702;11.030;2022-07-06T06:54:04;5.80;;;0.90;;
55076;SDS011;40971;44.702;11.030;2022-07-06T06:56:35;5.25;;;1.17;;
55076;SDS011;40971;44.702;11.030;2022-07-06T06:59:01;15.25;;;1.58;;
55076;SDS011;40971;44.702;11.030;2022-07-06T07:01:27;5.10;;;1.48;;
55076;SDS011;40971;44.702;11.030;2022-07-06T07:03:53;8.30;;;0.90;;
55076;SDS011;40971;44.702;11.030;2022-07-06T07:06:21;2.92;;;0.90;;
55076;SDS011;40971;44.702;11.030;2022-07-06T07:08:48;6.95;;;1.30;;
55076;SDS011;40971;44.702;11.030;2022-07-06T07:11:14;6.93;;;1.30;;
55076;SDS011;40971;44.702;11.030;2022-07-06T07:13:39;5.03;;;1.30;;
55076;SDS011;40971;44.702;11.030;2022-07-06T07:16:05;3.90;;;1.10;;
55076;SDS011;40971;44.702;11.030;2022-07-06T07:18:31;4.55;;;1.10;;
55076;SDS011;40971;44.702;11.030;2022-07-06T07:20:56;4.72;;;0.95;;
55076;SDS011;40971;44.702;11.030;2022-07-06T07:23:22;6.00;;;1.38;;
55076;SDS011;40971;44.702;11.030;2022-07-06T07:25:47;6.70;;;1.52;;
55076;SDS011;40971;44.702;11.030;2022-07-06T07:28:13;5.28;;;1.27;;
55076;SDS011;40971;44.702;11.030;2022-07-06T07:30:38;6.00;;;1.23;;
55076;SDS011;40971;44.702;11.030;2022-07-06T07:33:03;10.57;;;1.00;;
55076;SDS011;40971;44.702;11.030;2022-07-06T07:35:29;5.50;;;1.38;;
55076;SDS011;40971;44.702;11.030;2022-07-06T07:37:54;9.93;;;1.40;;
55076;SDS011;40971;44.702;11.030;2022-07-06T07:40:20;8.27;;;1.33;;
55076;SDS011;40971;44.702;11.030;2022-07-06T07:42:46;7.43;;;1.42;;
55076;SDS011;40971;44.702;11.030;2022-07-06T07:45:12;4.28;;;1.10;;
55076;SDS011;40971;44.702;11.030;2022-07-06T07:47:37;5.53;;;1.05;;
55076;SDS011;40971;44.702;11.030;2022-07-06T07:50:04;4.80;;;1.00;;
55076;SDS011;40971;44.702;11.030;2022-07-06T07:52:30;7.90;;;1.50;;
55076;SDS011;40971;44.702;11.030;2022-07-06T07:54:56;10.25;;;1.52;;
55076;SDS011;40971;44.702;11.030;2022-07-06T07:57:21;6.78;;;1.58;;
55076;SDS011;40971;44.702;11.030;2022-07-06T07:59:47;6.45;;;1.50;;
55076;SDS011;40971;44.702;11.030;2022-07-06T08:02:12;4.18;;;1.20;;
55076;SDS011;40971;44.702;11.030;2022-07-06T08:04:37;9.43;;;1.50;;
55076;SDS011;40971;44.702;11.030;2022-07-06T08:07:03;4.60;;;1.42;;
55076;SDS011;40971;44.702;11.030;2022-07-06T08:09:29;9.10;;;1.58;;
55076;SDS011;40971;44.702;11.030;2022-07-06T08:11:54;8.85;;;1.52;;
55076;SDS011;40971;44.702;11.030;2022-07-06T08:14:19;7.13;;;1.40;;
55076;SDS011;40971;44.702;11.030;2022-07-06T08:16:45;5.90;;;1.13;;
55076;SDS011;40971;44.702;11.030;2022-07-06T08:19:10;8.23;;;1.20;;
55076;SDS011;40971;44.702;11.030;2022-07-06T08:21:40;8.95;;;1.40;;
55076;SDS011;40971;44.702;11.030;2022-07-06T08:24:06;4.35;;;1.17;;
55076;SDS011;40971;44.702;11.030;2022-07-06T08:26:32;7.82;;;1.60;;
55076;SDS011;40971;44.702;11.030;2022-07-06T08:28:58;5.53;;;1.23;;
55076;SDS011;40971;44.702;11.030;2022-07-06T08:31:24;4.93;;;1.20;;
55076;SDS011;40971;44.702;11.030;2022-07-06T08:33:52;6.53;;;1.27;;
55076;SDS011;40971;44.702;11.030;2022-07-06T08:36:18;7.30;;;1.00;;
55076;SDS011;40971;44.702;11.030;2022-07-06T08:38:45;2.47;;;0.85;;
55076;SDS011;40971;44.702;11.030;2022-07-06T08:41:10;6.65;;;1.20;;
55076;SDS011;40971;44.702;11.030;2022-07-06T08:43:41;3.00;;;0.90;;
55076;SDS011;40971;44.702;11.030;2022-07-06T08:46:07;4.82;;;1.00;;
55076;SDS011;40971;44.702;11.030;2022-07-06T08:48:36;6.90;;;1.20;;
55076;SDS011;40971;44.702;11.030;2022-07-06T08:51:03;7.50;;;1.17;;
55076;SDS011;40971;44.702;11.030;2022-07-06T08:53:30;5.18;;;1.30;;
55076;SDS011;40971;44.702;11.030;2022-07-06T08:55:55;5.15;;;1.35;;
55076;SDS011;40971;44.702;11.030;2022-07-06T08:58:24;4.90;;;1.30;;
55076;SDS011;40971;44.702;11.030;2022-07-06T09:00:51;4.90;;;1.13;;
55076;SDS011;40971;44.702;11.030;2022-07-06T09:03:18;4.40;;;1.05;;
55076;SDS011;40971;44.702;11.030;2022-07-06T09:05:45;8.55;;;1.02;;
55076;SDS011;40971;44.702;11.030;2022-07-06T09:08:11;3.95;;;1.20;;
55076;SDS011;40971;44.702;11.030;2022-07-06T09:10:38;3.03;;;0.88;;
55076;SDS011;40971;44.702;11.030;2022-07-06T09:13:05;4.97;;;1.23;;
55076;SDS011;40971;44.702;11.030;2022-07-06T09:15:35;4.05;;;1.20;;
55076;SDS011;40971;44.702;11.030;2022-07-06T09:18:03;5.30;;;1.30;;
55076;SDS011;40971;44.702;11.030;2022-07-06T09:20:29;4.80;;;1.35;;
55076;SDS011;40971;44.702;11.030;2022-07-06T09:22:58;4.93;;;1.10;;
55076;SDS011;40971;44.702;11.030;2022-07-06T09:25:25;4.13;;;1.17;;
55076;SDS011;40971;44.702;11.030;2022-07-06T09:27:56;3.30;;;1.20;;
55076;SDS011;40971;44.702;11.030;2022-07-06T09:30:23;7.15;;;1.40;;
55076;SDS011;40971;44.702;11.030;2022-07-06T09:32:50;8.98;;;1.50;;
55076;SDS011;40971;44.702;11.030;2022-07-06T09:37:45;4.93;;;1.55;;
55076;SDS011;40971;44.702;11.030;2022-07-06T09:40:19;5.25;;;1.10;;
55076;SDS011;40971;44.702;11.030;2022-07-06T09:42:44;5.10;;;1.30;;
55076;SDS011;40971;44.702;11.030;2022-07-06T09:45:10;5.65;;;1.17;;
55076;SDS011;40971;44.702;11.030;2022-07-06T09:47:36;8.45;;;1.10;;
55076;SDS011;40971;44.702;11.030;2022-07-06T09:50:05;10.98;;;1.48;;
55076;SDS011;40971;44.702;11.030;2022-07-06T09:52:34;5.50;;;1.42;;
55076;SDS011;40971;44.702;11.030;2022-07-06T09:55:00;6.63;;;1.30;;
55076;SDS011;40971;44.702;11.030;2022-07-06T09:57:26;4.28;;;1.30;;
55076;SDS011;40971;44.702;11.030;2022-07-06T09:59:51;10.23;;;1.30;;
55076;SDS011;40971;44.702;11.030;2022-07-06T10:02:17;5.85;;;1.77;;
55076;SDS011;40971;44.702;11.030;2022-07-06T10:04:45;6.30;;;1.77;;
55076;SDS011;40971;44.702;11.030;2022-07-06T10:07:11;7.03;;;1.23;;
55076;SDS011;40971;44.702;11.030;2022-07-06T10:09:37;4.25;;;1.25;;
55076;SDS011;40971;44.702;11.030;2022-07-06T10:12:03;4.47;;;1.30;;
55076;SDS011;40971;44.702;11.030;2022-07-06T10:14:33;5.57;;;1.60;;
55076;SDS011;40971;44.702;11.030;2022-07-06T10:17:02;5.07;;;1.42;;
55076;SDS011;40971;44.702;11.030;2022-07-06T10:19:30;7.75;;;1.80;;
55076;SDS011;40971;44.702;11.030;2022-07-06T10:21:58;11.27;;;1.77;;
55076;SDS011;40971;44.702;11.030;2022-07-06T10:24:26;6.32;;;1.20;;
55076;SDS011;40971;44.702;11.030;2022-07-06T10:26:52;13.77;;;1.25;;
55076;SDS011;40971;44.702;11.030;2022-07-06T10:29:18;11.45;;;1.75;;
55076;SDS011;40971;44.702;11.030;2022-07-06T10:31:44;11.65;;;1.50;;
55076;SDS011;40971;44.702;11.030;2022-07-06T10:34:12;7.75;;;1.58;;
55076;SDS011;40971;44.702;11.030;2022-07-06T10:36:40;10.13;;;1.58;;
55076;SDS011;40971;44.702;11.030;2022-07-06T10:39:07;6.82;;;1.30;;
55076;SDS011;40971;44.702;11.030;2022-07-06T10:41:52;9.80;;;1.45;;
55076;SDS011;40971;44.702;11.030;2022-07-06T10:44:19;4.68;;;1.30;;
55076;SDS011;40971;44.702;11.030;2022-07-06T10:46:50;9.45;;;1.70;;
55076;SDS011;40971;44.702;11.030;2022-07-06T10:49:20;6.10;;;1.35;;
55076;SDS011;40971;44.702;11.030;2022-07-06T10:51:47;6.07;;;1.80;;
55076;SDS011;40971;44.702;11.030;2022-07-06T10:54:14;5.03;;;1.25;;
55076;SDS011;40971;44.702;11.030;2022-07-06T10:56:50;7.63;;;1.30;;
55076;SDS011;40971;44.702;11.030;2022-07-06T11:04:43;6.65;;;1.35;;
55076;SDS011;40971;44.702;11.030;2022-07-06T11:07:11;6.50;;;1.23;;
55076;SDS011;40971;44.702;11.030;2022-07-06T11:09:38;6.45;;;1.60;;
55076;SDS011;40971;44.702;11.030;2022-07-06T11:14:46;8.45;;;1.33;;
55076;SDS011;40971;44.702;11.030;2022-07-06T11:17:15;5.47;;;1.30;;
55076;SDS011;40971;44.702;11.030;2022-07-06T11:19:52;5.97;;;1.40;;
55076;SDS011;40971;44.702;11.030;2022-07-06T11:22:20;7.97;;;1.40;;
55076;SDS011;40971;44.702;11.030;2022-07-06T11:24:49;7.07;;;1.30;;
55076;SDS011;40971;44.702;11.030;2022-07-06T11:27:16;5.40;;;1.25;;
55076;SDS011;40971;44.702;11.030;2022-07-06T11:29:43;4.38;;;1.33;;
55076;SDS011;40971;44.702;11.030;2022-07-06T11:32:10;4.50;;;1.60;;
55076;SDS011;40971;44.702;11.030;2022-07-06T11:34:42;4.60;;;1.30;;
55076;SDS011;40971;44.702;11.030;2022-07-06T11:37:12;6.10;;;1.40;;
55076;SDS011;40971;44.702;11.030;2022-07-06T11:39:40;5.68;;;1.98;;
55076;SDS011;40971;44.702;11.030;2022-07-06T11:42:07;3.50;;;1.33;;
55076;SDS011;40971;44.702;11.030;2022-07-06T11:44:34;5.13;;;1.50;;
55076;SDS011;40971;44.702;11.030;2022-07-06T11:47:02;6.15;;;1.52;;
55076;SDS011;40971;44.702;11.030;2022-07-06T11:49:32;6.45;;;1.50;;
55076;SDS011;40971;44.702;11.030;2022-07-06T11:51:59;4.82;;;1.13;;
55076;SDS011;40971;44.702;11.030;2022-07-06T11:54:25;4.70;;;1.40;;
55076;SDS011;40971;44.702;11.030;2022-07-06T11:56:55;4.57;;;1.17;;
55076;SDS011;40971;44.702;11.030;2022-07-06T11:59:27;5.28;;;1.50;;
55076;SDS011;40971;44.702;11.030;2022-07-06T12:04:28;4.68;;;1.20;;
55076;SDS011;40971;44.702;11.030;2022-07-06T12:06:54;4.95;;;1.30;;
55076;SDS011;40971;44.702;11.030;2022-07-06T12:09:24;3.90;;;1.25;;
55076;SDS011;40971;44.702;11.030;2022-07-06T12:11:49;5.10;;;1.30;;
55076;SDS011;40971;44.702;11.030;2022-07-06T12:14:16;4.45;;;1.35;;
55076;SDS011;40971;44.702;11.030;2022-07-06T12:16:43;4.60;;;1.13;;
55076;SDS011;40971;44.702;11.030;2022-07-06T12:19:09;13.60;;;1.33;;
55076;SDS011;40971;44.702;11.030;2022-07-06T12:21:41;4.07;;;1.27;;
55076;SDS011;40971;44.702;11.030;2022-07-06T12:24:09;3.88;;;1.10;;
55076;SDS011;40971;44.702;11.030;2022-07-06T12:26:40;4.25;;;1.20;;
55076;SDS011;40971;44.702;11.030;2022-07-06T12:29:07;3.75;;;1.20;;
55076;SDS011;40971;44.702;11.030;2022-07-06T12:31:36;4.00;;;0.95;;
55076;SDS011;40971;44.702;11.030;2022-07-06T12:34:03;6.43;;;1.30;;
55076;SDS011;40971;44.702;11.030;2022-07-06T12:36:30;4.47;;;1.05;;
55076;SDS011;40971;44.702;11.030;2022-07-06T12:38:57;3.40;;;1.05;;
55076;SDS011;40971;44.702;11.030;2022-07-06T12:41:32;5.25;;;1.25;;
55076;SDS011;40971;44.702;11.030;2022-07-06T12:44:08;7.70;;;1.20;;
55076;SDS011;40971;44.702;11.030;2022-07-06T12:46:38;3.72;;;1.13;;
55076;SDS011;40971;44.702;11.030;2022-07-06T12:52:01;5.75;;;1.25;;
55076;SDS011;40971;44.702;11.030;2022-07-06T12:54:35;4.63;;;0.93;;
55076;SDS011;40971;44.702;11.030;2022-07-06T12:59:27;5.80;;;1.38;;
55076;SDS011;40971;44.702;11.030;2022-07-06T13:01:54;4.57;;;1.30;;
55076;SDS011;40971;44.702;11.030;2022-07-06T13:04:21;3.45;;;1.08;;
55076;SDS011;40971;44.702;11.030;2022-07-06T13:06:51;2.92;;;0.90;;
55076;SDS011;40971;44.702;11.030;2022-07-06T13:09:17;6.97;;;1.17;;
55076;SDS011;40971;44.702;11.030;2022-07-06T13:11:44;3.60;;;1.00;;
55076;SDS011;40971;44.702;11.030;2022-07-06T13:14:10;3.22;;;1.05;;
55076;SDS011;40971;44.702;11.030;2022-07-06T13:16:36;7.05;;;1.20;;
55076;SDS011;40971;44.702;11.030;2022-07-06T13:19:01;6.40;;;1.17;;
55076;SDS011;40971;44.702;11.030;2022-07-06T13:21:27;5.10;;;1.10;;
55076;SDS011;40971;44.702;11.030;2022-07-06T13:23:53;2.63;;;0.82;;
55076;SDS011;40971;44.702;11.030;2022-07-06T13:26:18;5.35;;;1.05;;
55076;SDS011;40971;44.702;11.030;2022-07-06T13:28:44;5.32;;;1.05;;
55076;SDS011;40971;44.702;11.030;2022-07-06T13:31:10;7.00;;;1.23;;
55076;SDS011;40971;44.702;11.030;2022-07-06T13:33:35;5.13;;;1.10;;
55076;SDS011;40971;44.702;11.030;2022-07-06T13:36:01;4.97;;;0.90;;
55076;SDS011;40971;44.702;11.030;2022-07-06T13:38:27;8.05;;;1.17;;
55076;SDS011;40971;44.702;11.030;2022-07-06T13:40:53;7.57;;;0.90;;
55076;SDS011;40971;44.702;11.030;2022-07-06T13:43:19;4.05;;;0.80;;
55076;SDS011;40971;44.702;11.030;2022-07-06T13:45:45;4.57;;;1.15;;
55076;SDS011;40971;44.702;11.030;2022-07-06T13:48:11;4.63;;;1.05;;
55076;SDS011;40971;44.702;11.030;2022-07-06T13:50:37;2.75;;;0.80;;
55076;SDS011;40971;44.702;11.030;2022-07-06T13:53:03;4.00;;;1.10;;
55076;SDS011;40971;44.702;11.030;2022-07-06T13:55:29;3.40;;;1.20;;
55076;SDS011;40971;44.702;11.030;2022-07-06T13:57:55;4.03;;;1.00;;
55076;SDS011;40971;44.702;11.030;2022-07-06T14:00:21;2.90;;;0.98;;
55076;SDS011;40971;44.702;11.030;2022-07-06T14:02:47;4.25;;;1.10;;
55076;SDS011;40971;44.702;11.030;2022-07-06T14:05:12;6.85;;;1.25;;
55076;SDS011;40971;44.702;11.030;2022-07-06T14:07:38;3.03;;;1.15;;
55076;SDS011;40971;44.702;11.030;2022-07-06T14:10:03;6.43;;;1.13;;
55076;SDS011;40971;44.702;11.030;2022-07-06T14:12:29;4.88;;;1.10;;
55076;SDS011;40971;44.702;11.030;2022-07-06T14:14:55;7.22;;;1.00;;
55076;SDS011;40971;44.702;11.030;2022-07-06T14:17:20;6.93;;;1.23;;
55076;SDS011;40971;44.702;11.030;2022-07-06T14:19:46;3.80;;;0.93;;
55076;SDS011;40971;44.702;11.030;2022-07-06T14:22:11;4.20;;;0.98;;
55076;SDS011;40971;44.702;11.030;2022-07-06T14:24:36;5.50;;;1.00;;
55076;SDS011;40971;44.702;11.030;2022-07-06T14:27:02;2.72;;;0.90;;
55076;SDS011;40971;44.702;11.030;2022-07-06T14:29:28;4.95;;;1.88;;
55076;SDS011;40971;44.702;11.030;2022-07-06T14:31:53;3.47;;;1.10;;
55076;SDS011;40971;44.702;11.030;2022-07-06T14:34:18;5.10;;;1.10;;
55076;SDS011;40971;44.702;11.030;2022-07-06T14:36:44;6.50;;;1.23;;
55076;SDS011;40971;44.702;11.030;2022-07-06T14:39:09;6.88;;;1.20;;
55076;SDS011;40971;44.702;11.030;2022-07-06T14:41:37;3.65;;;1.17;;
55076;SDS011;40971;44.702;11.030;2022-07-06T14:44:03;2.70;;;1.00;;
55076;SDS011;40971;44.702;11.030;2022-07-06T14:46:29;2.63;;;1.08;;
55076;SDS011;40971;44.702;11.030;2022-07-06T14:48:55;3.60;;;1.00;;